createdAt,value
2022-11-02T00:00:56.197Z,101577.66
2022-11-02T00:02:57.796Z,101569.72
2022-11-02T00:04:59.287Z,101566.13
2022-11-02T00:07:00.704Z,101563.50
2022-11-02T00:09:02.627Z,101558.22
2022-11-02T00:11:04.235Z,101568.78
2022-11-02T00:13:06.139Z,101563.47
2022-11-02T00:15:08.667Z,101564.38
2022-11-02T00:17:10.156Z,101556.47
2022-11-02T00:19:11.899Z,101557.38
2022-11-02T00:21:14.888Z,101553.03
2022-11-02T00:23:16.345Z,101545.09
2022-11-02T00:25:21.653Z,101555.72
2022-11-02T00:27:24.037Z,101545.09
2022-11-02T00:29:27.856Z,101546.81
2022-11-02T00:31:31.473Z,101544.19
2022-11-02T00:33:32.908Z,101541.53
2022-11-02T00:35:35.434Z,101537.97
2022-11-02T00:37:37.081Z,101537.03
2022-11-02T00:39:38.508Z,101531.69
2022-11-02T00:41:40.053Z,101530.75
2022-11-02T00:43:41.485Z,101532.53
2022-11-02T00:45:42.913Z,101518.31
2022-11-02T00:47:44.343Z,101528.84
2022-11-02T00:49:45.806Z,101521.72
2022-11-02T00:51:47.328Z,101529.72
2022-11-02T00:53:48.884Z,101535.00
2022-11-02T00:55:50.367Z,101530.53
2022-11-02T00:57:51.806Z,101528.81
2022-11-02T00:59:53.237Z,101526.16
2022-11-02T01:01:54.787Z,101518.25
2022-11-02T01:03:57.605Z,101512.94
2022-11-02T01:05:59.161Z,101523.53
2022-11-02T01:08:00.690Z,101526.31
2022-11-02T01:10:02.226Z,101515.78
2022-11-02T01:12:03.798Z,101503.63
2022-11-02T01:14:05.312Z,101510.84
2022-11-02T01:16:07.487Z,101500.38
2022-11-02T01:18:09.195Z,101509.31
2022-11-02T01:20:12.250Z,101511.16
2022-11-02T01:22:13.715Z,101502.41
2022-11-02T01:24:15.171Z,101493.63
2022-11-02T01:26:16.755Z,101494.53
2022-11-02T01:28:18.663Z,101491.00
2022-11-02T01:30:20.098Z,101495.44
2022-11-02T01:32:21.567Z,101499.84
2022-11-02T01:34:23.115Z,101498.06
2022-11-02T01:36:24.603Z,101494.56
2022-11-02T01:38:26.049Z,101489.31
2022-11-02T01:40:27.475Z,101491.13
2022-11-02T01:42:28.972Z,101498.22
2022-11-02T01:44:35.507Z,101484.16
2022-11-02T01:46:46.672Z,101481.50
2022-11-02T01:48:54.472Z,101486.84
2022-11-02T01:50:57.467Z,101472.75
2022-11-02T01:52:59.711Z,101470.94
2022-11-02T01:55:07.079Z,101478.88
2022-11-02T01:57:12.603Z,101481.47
2022-11-02T01:59:19.616Z,101476.22
2022-11-02T02:01:21.233Z,101474.47
2022-11-02T02:03:23.094Z,101481.50
2022-11-02T02:05:25.534Z,101477.06
2022-11-02T02:07:27.967Z,101472.66
2022-11-02T02:09:30.146Z,101462.94
2022-11-02T02:11:34.187Z,101472.63
2022-11-02T02:13:35.710Z,101473.50
2022-11-02T02:15:53.789Z,101467.31
2022-11-02T02:18:04.348Z,101458.53
2022-11-02T02:20:17.980Z,101455.03
2022-11-02T02:22:51.063Z,101450.59
2022-11-02T02:25:06.046Z,101441.75
2022-11-02T02:27:23.570Z,101441.75
2022-11-02T02:30:09.437Z,101440.88
2022-11-02T02:32:19.152Z,101436.44
2022-11-02T02:34:35.590Z,101435.53
2022-11-02T02:36:51.698Z,101424.88
2022-11-02T02:39:13.136Z,101431.97
2022-11-02T02:41:23.942Z,101441.69
2022-11-02T02:43:32.396Z,101436.38
2022-11-02T02:45:44.578Z,101426.69
2022-11-02T02:48:00.495Z,101434.63
2022-11-02T02:50:26.017Z,101434.78
2022-11-02T02:52:30.420Z,101437.47
2022-11-02T02:54:40.881Z,101436.63
2022-11-02T02:56:51.058Z,101448.22
2022-11-02T02:58:58.648Z,101449.16
2022-11-02T03:01:00.747Z,101439.50
2022-11-02T03:03:04.640Z,101447.50
2022-11-02T03:05:26.158Z,101438.69
2022-11-02T03:07:33.964Z,101444.84
2022-11-02T03:09:48.376Z,101436.00
2022-11-02T03:12:00.751Z,101440.38
2022-11-02T03:14:07.661Z,101440.47
2022-11-02T03:16:36.264Z,101438.72
2022-11-02T03:18:43.882Z,101446.66
2022-11-02T03:21:19.611Z,101452.84
2022-11-02T03:23:48.862Z,101448.41
2022-11-02T03:26:12.710Z,101444.81
2022-11-02T03:28:37.149Z,101442.03
2022-11-02T03:31:18.675Z,101445.41
2022-11-02T03:33:27.111Z,101452.31
2022-11-02T03:35:57.640Z,101456.63
2022-11-02T03:38:03.979Z,101446.00
2022-11-02T03:40:18.391Z,101444.22
2022-11-02T03:42:28.010Z,101454.75
2022-11-02T03:44:33.494Z,101455.59
2022-11-02T03:46:38.590Z,101460.00
2022-11-02T03:48:46.721Z,101464.34
2022-11-02T03:50:52.811Z,101462.53
2022-11-02T03:53:03.738Z,101463.31
2022-11-02T03:55:13.399Z,101462.28
2022-11-02T03:57:21.257Z,101460.50
2022-11-02T03:59:22.760Z,101456.03
2022-11-02T04:01:26.705Z,101452.47
2022-11-02T04:03:31.808Z,101467.41
2022-11-02T04:05:35.511Z,101465.56
2022-11-02T04:07:59.745Z,101475.25
2022-11-02T04:10:01.234Z,101477.91
2022-11-02T04:12:21.012Z,101477.84
2022-11-02T04:14:40.965Z,101475.19
2022-11-02T04:16:42.586Z,101484.88
2022-11-02T04:19:02.916Z,101478.72
2022-11-02T04:21:04.417Z,101478.72
2022-11-02T04:23:24.526Z,101476.16
2022-11-02T04:25:26.007Z,101468.38
2022-11-02T04:27:27.496Z,101475.47
2022-11-02T04:29:28.919Z,101487.84
2022-11-02T04:31:30.423Z,101494.88
2022-11-02T04:33:35.053Z,101491.38
2022-11-02T04:35:37.677Z,101504.66
2022-11-02T04:37:59.546Z,101503.78
2022-11-02T04:40:00.965Z,101507.34
2022-11-02T04:42:02.384Z,101502.03
2022-11-02T04:44:04.756Z,101500.34
2022-11-02T04:46:06.207Z,101481.97
2022-11-02T04:48:09.349Z,101496.22
2022-11-02T04:50:11.542Z,101488.41
2022-11-02T04:52:12.974Z,101506.16
2022-11-02T04:54:14.382Z,101516.81
2022-11-02T04:56:16.241Z,101503.63
2022-11-02T04:58:17.737Z,101504.69
2022-11-02T05:00:21.679Z,101489.78
2022-11-02T05:02:23.218Z,101481.13
2022-11-02T05:04:24.740Z,101489.25
2022-11-02T05:06:26.250Z,101472.56
2022-11-02T05:08:28.057Z,101476.13
2022-11-02T05:10:30.381Z,101480.56
2022-11-02T05:12:31.866Z,101463.06
2022-11-02T05:14:33.967Z,101474.63
2022-11-02T05:16:35.551Z,101483.56
2022-11-02T05:18:36.975Z,101482.75
2022-11-02T05:20:38.471Z,101485.44
2022-11-02T05:22:43.639Z,101480.34
2022-11-02T05:24:45.066Z,101480.56
2022-11-02T05:26:52.864Z,101480.63
2022-11-02T05:28:55.684Z,101471.94
2022-11-02T05:31:00.542Z,101480.81
2022-11-02T05:33:03.086Z,101486.97
2022-11-02T05:35:05.227Z,101488.72
2022-11-02T05:37:06.654Z,101487.84
2022-11-02T05:39:08.134Z,101483.47
2022-11-02T05:41:09.674Z,101487.91
2022-11-02T05:43:11.185Z,101493.25
2022-11-02T05:45:12.899Z,101498.63
2022-11-02T05:47:14.376Z,101502.19
2022-11-02T05:49:15.810Z,101502.25
2022-11-02T05:51:17.662Z,101507.63
2022-11-02T05:53:19.075Z,101503.28
2022-11-02T05:55:20.584Z,101501.59
2022-11-02T05:57:22.008Z,101506.97
2022-11-02T05:59:23.437Z,101506.09
2022-11-02T06:01:25.027Z,101507.91
2022-11-02T06:03:26.706Z,101503.50
2022-11-02T06:05:28.247Z,101501.78
2022-11-02T06:07:29.682Z,101507.00
2022-11-02T06:09:31.134Z,101507.00
2022-11-02T06:11:32.668Z,101509.63
2022-11-02T06:13:34.722Z,101507.00
2022-11-02T06:15:36.209Z,101510.50
2022-11-02T06:17:41.072Z,101508.72
2022-11-02T06:19:42.546Z,101513.16
2022-11-02T06:21:47.423Z,101514.00
2022-11-02T06:23:50.610Z,101520.13
2022-11-02T06:25:53.520Z,101505.13
2022-11-02T06:27:56.923Z,101505.97
2022-11-02T06:29:58.391Z,101513.88
2022-11-02T06:31:59.843Z,101513.88
2022-11-02T06:34:01.252Z,101522.66
2022-11-02T06:36:02.847Z,101515.63
2022-11-02T06:38:04.267Z,101520.00
2022-11-02T06:40:06.290Z,101519.97
2022-11-02T06:42:07.793Z,101531.44
2022-11-02T06:44:09.202Z,101518.22
2022-11-02T06:46:10.695Z,101524.38
2022-11-02T06:48:12.203Z,101523.47
2022-11-02T06:50:13.669Z,101526.97
2022-11-02T06:52:15.087Z,101529.59
2022-11-02T06:54:16.674Z,101526.00
2022-11-02T06:56:18.410Z,101531.22
2022-11-02T06:58:20.082Z,101526.81
2022-11-02T07:00:23.845Z,101530.34
2022-11-02T07:02:25.736Z,101532.91
2022-11-02T07:04:27.272Z,101537.22
2022-11-02T07:06:28.762Z,101534.50
2022-11-02T07:08:30.226Z,101535.28
2022-11-02T07:10:32.132Z,101537.84
2022-11-02T07:12:33.567Z,101534.25
2022-11-02T07:14:35.023Z,101527.13
2022-11-02T07:16:36.472Z,101539.38
2022-11-02T07:18:37.990Z,101545.44
2022-11-02T07:20:39.548Z,101541.88
2022-11-02T07:22:41.361Z,101537.47
2022-11-02T07:24:42.768Z,101547.06
2022-11-02T07:26:44.495Z,101558.44
2022-11-02T07:28:47.107Z,101548.63
2022-11-02T07:30:49.218Z,101554.69
2022-11-02T07:32:50.781Z,101556.44
2022-11-02T07:34:52.202Z,101567.81
2022-11-02T07:36:55.486Z,101565.13
2022-11-02T07:38:56.969Z,101568.56
2022-11-02T07:40:58.379Z,101579.00
2022-11-02T07:43:00.639Z,101579.78
2022-11-02T07:45:02.180Z,101575.28
2022-11-02T07:47:03.657Z,101579.63
2022-11-02T07:49:05.128Z,101580.41
2022-11-02T07:51:07.796Z,101587.38
2022-11-02T07:53:09.707Z,101599.56
2022-11-02T07:55:12.571Z,101588.84
2022-11-02T07:57:14.035Z,101595.84
2022-11-02T07:59:15.488Z,101601.97
2022-11-02T08:01:16.947Z,101604.63
2022-11-02T08:03:18.498Z,101602.88
2022-11-02T08:05:19.959Z,101618.75
2022-11-02T08:07:21.401Z,101618.75
2022-11-02T08:09:22.946Z,101621.38
2022-11-02T08:11:24.394Z,101617.84
2022-11-02T08:13:26.081Z,101625.72
2022-11-02T08:15:27.577Z,101628.38
2022-11-02T08:17:29.031Z,101623.91
2022-11-02T08:19:30.745Z,101637.06
2022-11-02T08:21:32.230Z,101630.81
2022-11-02T08:23:33.732Z,101626.31
2022-11-02T08:25:37.599Z,101631.53
2022-11-02T08:27:39.043Z,101637.59
2022-11-02T08:29:40.578Z,101640.97
2022-11-02T08:31:42.053Z,101640.00
2022-11-02T08:33:44.373Z,101642.59
2022-11-02T08:35:47.082Z,101656.59
2022-11-02T08:37:55.212Z,101645.88
2022-11-02T08:39:56.641Z,101648.50
2022-11-02T08:41:58.070Z,101641.38
2022-11-02T08:43:59.515Z,101650.16
2022-11-02T08:46:14.856Z,101659.84
2022-11-02T08:48:17.000Z,101657.25
2022-11-02T08:50:18.516Z,101654.59
2022-11-02T08:52:20.020Z,101664.25
2022-11-02T08:54:21.476Z,101660.69
2022-11-02T08:56:23.205Z,101672.84
2022-11-02T08:58:24.623Z,101671.75
2022-11-02T09:00:31.506Z,101676.13
2022-11-02T09:02:33.011Z,101667.38
2022-11-02T09:04:34.470Z,101668.31
2022-11-02T09:06:35.909Z,101673.63
2022-11-02T09:08:37.401Z,101680.69
2022-11-02T09:10:39.085Z,101667.34
2022-11-02T09:12:40.525Z,101666.38
2022-11-02T09:14:42.045Z,101670.69
2022-11-02T09:16:43.488Z,101666.22
2022-11-02T09:18:44.906Z,101676.59
2022-11-02T09:20:47.884Z,101686.97
2022-11-02T09:22:49.534Z,101696.63
2022-11-02T09:24:50.975Z,101688.75
2022-11-02T09:26:53.078Z,101686.16
2022-11-02T09:28:54.533Z,101681.84
2022-11-02T09:30:56.069Z,101687.19
2022-11-02T09:32:59.246Z,101689.91
2022-11-02T09:35:02.021Z,101690.88
2022-11-02T09:37:03.501Z,101708.63
2022-11-02T09:39:04.954Z,101713.13
2022-11-02T09:41:18.337Z,101712.25
2022-11-02T09:43:50.196Z,101723.81
2022-11-02T09:46:00.573Z,101718.41
2022-11-02T09:48:17.758Z,101713.81
2022-11-02T09:50:24.445Z,101724.28
2022-11-02T09:52:35.927Z,101727.75
2022-11-02T09:54:43.928Z,101744.63
2022-11-02T09:56:47.071Z,101744.66
2022-11-02T09:59:05.374Z,101754.50
2022-11-02T10:01:33.775Z,101766.28
2022-11-02T10:03:48.623Z,101758.59
2022-11-02T10:06:15.526Z,101769.47
2022-11-02T10:08:29.151Z,101761.75
2022-11-02T10:11:06.988Z,101777.72
2022-11-02T10:13:15.615Z,101775.03
2022-11-02T10:15:40.287Z,101772.22
2022-11-02T10:17:43.568Z,101774.63
2022-11-02T10:19:53.199Z,101768.19
2022-11-02T10:21:58.158Z,101777.56
2022-11-02T10:24:19.741Z,101777.34
2022-11-02T10:26:33.058Z,101781.53
2022-11-02T10:28:39.639Z,101783.03
2022-11-02T10:30:43.966Z,101782.72
2022-11-02T10:32:50.712Z,101798.19
2022-11-02T10:34:59.026Z,101790.66
2022-11-02T10:37:42.935Z,101795.19
2022-11-02T10:40:13.045Z,101805.09
2022-11-02T10:42:44.084Z,101799.97
2022-11-02T10:45:07.422Z,101807.16
2022-11-02T10:47:22.739Z,101807.31
2022-11-02T10:49:51.923Z,101804.78
2022-11-02T10:51:53.443Z,101811.03
2022-11-02T10:53:55.647Z,101814.59
2022-11-02T10:56:07.490Z,101822.50
2022-11-02T10:58:15.753Z,101826.03
2022-11-02T11:00:35.313Z,101838.34
2022-11-02T11:02:36.806Z,101837.53
2022-11-02T11:04:38.296Z,101846.44
2022-11-02T11:06:42.590Z,101849.13
2022-11-02T11:08:47.811Z,101851.78
2022-11-02T11:10:49.376Z,101860.56
2022-11-02T11:12:50.936Z,101859.66
2022-11-02T11:20:01.342Z,101861.72
2022-11-02T11:22:25.048Z,101877.50
2022-11-02T11:24:33.279Z,101875.41
2022-11-02T11:26:34.762Z,101876.34
2022-11-02T11:28:53.225Z,101879.13
2022-11-02T11:31:18.061Z,101879.31
2022-11-02T11:33:21.464Z,101878.53
2022-11-02T11:35:32.846Z,101878.28
2022-11-02T11:37:34.389Z,101878.91
2022-11-02T11:39:37.697Z,101883.03
2022-11-02T11:41:40.489Z,101887.09
2022-11-02T11:43:42.615Z,101887.72
2022-11-02T11:45:54.995Z,101883.78
2022-11-02T11:48:06.658Z,101886.41
2022-11-02T11:50:22.999Z,101895.53
2022-11-02T11:52:33.156Z,101894.84
2022-11-02T11:54:35.060Z,101895.06
2022-11-02T11:56:36.605Z,101898.75
2022-11-02T11:58:50.630Z,101896.34
2022-11-02T12:01:07.506Z,101898.34
2022-11-02T12:03:14.362Z,101894.06
2022-11-02T12:05:20.773Z,101900.28
2022-11-02T12:07:25.000Z,101896.66
2022-11-02T12:09:40.433Z,101899.00
2022-11-02T12:12:01.384Z,101891.59
2022-11-02T12:14:21.007Z,101889.75
2022-11-02T12:16:43.239Z,101900.31
2022-11-02T12:19:13.539Z,101904.72
2022-11-02T12:21:30.119Z,101902.91
2022-11-02T12:23:45.331Z,101909.94
2022-11-02T12:26:06.018Z,101911.78
2022-11-02T12:28:10.622Z,101911.78
2022-11-02T12:30:50.904Z,101911.78
2022-11-02T12:33:00.305Z,101926.00
2022-11-02T12:35:29.274Z,101928.66
2022-11-02T12:37:49.577Z,101926.94
2022-11-02T12:40:06.050Z,101941.06
2022-11-02T12:42:22.646Z,101935.66
2022-11-02T12:44:48.739Z,101935.63
2022-11-02T12:47:03.652Z,101938.25
2022-11-02T12:49:17.483Z,101948.03
2022-11-02T12:51:24.534Z,101943.66
2022-11-02T12:53:39.542Z,101944.56
2022-11-02T12:55:47.067Z,101951.72
2022-11-02T12:57:49.414Z,101962.28
2022-11-02T12:59:55.781Z,101960.50
2022-11-02T13:02:13.671Z,101957.84
2022-11-02T13:04:31.068Z,101957.03
2022-11-02T13:06:39.291Z,101961.47
2022-11-02T13:09:19.973Z,101947.31
2022-11-02T13:11:35.772Z,101958.75
2022-11-02T13:13:43.933Z,101945.50
2022-11-02T13:15:47.717Z,101949.84
2022-11-02T13:18:04.267Z,101956.88
2022-11-02T13:20:28.700Z,101961.22
2022-11-02T13:22:35.420Z,101952.28
2022-11-02T13:24:42.359Z,101953.94
2022-11-02T13:26:47.652Z,101954.81
2022-11-02T13:28:56.898Z,101962.78
2022-11-02T13:30:59.205Z,101957.47
2022-11-02T13:33:12.566Z,101959.25
2022-11-02T13:35:30.802Z,101957.56
2022-11-02T13:37:43.603Z,101961.13
2022-11-02T13:39:52.700Z,101966.41
2022-11-02T13:42:40.271Z,101960.34
2022-11-02T13:44:47.907Z,101958.59
2022-11-02T13:47:20.387Z,101957.75
2022-11-02T13:49:29.237Z,101956.09
2022-11-02T13:51:54.847Z,101964.97
2022-11-02T13:54:01.758Z,101968.53
2022-11-02T13:56:10.369Z,101965.91
2022-11-02T13:58:25.606Z,101961.56
2022-11-02T14:00:31.605Z,101966.75
2022-11-02T14:02:37.429Z,101972.88
2022-11-02T14:04:41.135Z,101973.59
2022-11-02T14:07:05.768Z,101980.47
2022-11-02T14:09:09.950Z,101984.72
2022-11-02T14:11:11.321Z,101978.47
2022-11-02T14:13:17.594Z,101990.81
2022-11-02T14:15:19.054Z,101987.31
2022-11-02T14:17:20.518Z,102003.25
2022-11-02T14:19:22.221Z,101990.13
2022-11-02T14:21:45.197Z,101993.78
2022-11-02T14:23:46.980Z,101992.03
2022-11-02T14:25:49.415Z,101990.31
2022-11-02T14:27:54.235Z,101987.69
2022-11-02T14:29:56.021Z,101984.28
2022-11-02T14:32:03.485Z,101978.97
2022-11-02T14:34:12.551Z,101989.66
2022-11-02T14:36:17.082Z,101980.00
2022-11-02T14:38:37.698Z,101990.63
2022-11-02T14:40:57.916Z,101994.19
2022-11-02T14:43:53.834Z,101991.63
2022-11-02T14:46:08.452Z,101980.22
2022-11-02T14:48:16.172Z,101989.13
2022-11-02T14:50:20.910Z,101984.75
2022-11-02T14:52:34.290Z,101986.56
2022-11-02T14:54:48.832Z,101976.06
2022-11-02T14:56:50.207Z,101984.09
2022-11-02T14:58:56.994Z,101985.00
2022-11-02T15:01:01.330Z,101987.72
2022-11-02T15:03:06.866Z,101983.31
2022-11-02T15:05:19.480Z,101980.78
2022-11-02T15:07:43.323Z,101979.19
2022-11-02T15:10:01.186Z,101987.25
2022-11-02T15:12:26.793Z,101989.13
2022-11-02T15:14:38.766Z,101985.69
2022-11-02T15:16:41.531Z,101991.94
2022-11-02T15:18:42.976Z,102005.22
2022-11-02T15:20:46.425Z,102006.22
2022-11-02T15:22:56.389Z,102006.25
2022-11-02T15:25:03.280Z,102010.88
2022-11-02T15:27:06.945Z,102011.00
2022-11-02T15:29:20.761Z,102014.59
2022-11-02T15:31:26.277Z,102011.91
2022-11-02T15:33:42.027Z,102008.41
2022-11-02T15:35:44.335Z,102016.44
2022-11-02T15:38:11.332Z,102010.38
2022-11-02T15:40:19.801Z,102021.13
2022-11-02T15:42:47.760Z,102012.50
2022-11-02T15:45:27.001Z,102014.25
2022-11-02T15:47:48.370Z,102005.63
2022-11-02T15:50:08.237Z,102007.47
2022-11-02T15:52:18.728Z,102010.13
2022-11-02T15:54:20.160Z,102016.38
2022-11-02T15:56:49.217Z,102008.47
2022-11-02T15:59:18.238Z,102016.50
2022-11-02T16:01:25.021Z,102016.59
2022-11-02T16:03:27.563Z,102014.88
2022-11-02T16:05:37.950Z,102011.50
2022-11-02T16:07:50.314Z,102010.75
2022-11-02T16:10:22.426Z,102009.91
2022-11-02T16:12:24.783Z,102005.56
2022-11-02T16:14:26.231Z,102003.00
2022-11-02T16:16:30.805Z,102007.47
2022-11-02T16:18:40.554Z,102006.63
2022-11-02T16:20:45.473Z,102014.69
2022-11-02T16:23:19.916Z,102012.13
2022-11-02T16:25:41.547Z,102017.47
2022-11-02T16:27:43.180Z,102012.19
2022-11-02T16:29:45.398Z,102019.28
2022-11-02T16:31:46.899Z,102014.94
2022-11-02T16:33:53.891Z,102014.16
2022-11-02T16:35:55.899Z,102016.88
2022-11-02T16:37:57.792Z,102012.47
2022-11-02T16:39:59.420Z,102009.88
2022-11-02T16:42:02.536Z,102017.03
2022-11-02T16:44:15.738Z,102009.13
2022-11-02T16:46:17.970Z,102021.50
2022-11-02T16:48:27.407Z,102019.78
2022-11-02T16:50:29.334Z,102024.25
2022-11-02T16:52:36.487Z,102015.44
2022-11-02T16:54:40.954Z,102016.31
2022-11-02T16:56:48.349Z,102018.97
2022-11-02T16:58:51.098Z,102028.72
2022-11-02T17:01:01.966Z,102019.09
2022-11-02T17:03:09.518Z,102018.28
2022-11-02T17:05:25.043Z,102027.16
2022-11-02T17:07:35.775Z,102020.09
2022-11-02T17:09:37.942Z,102013.94
2022-11-02T17:11:42.968Z,102012.19
2022-11-02T17:13:56.776Z,102016.66
2022-11-02T17:16:06.015Z,102025.56
2022-11-02T17:18:07.807Z,102019.41
2022-11-02T17:20:15.200Z,102014.09
2022-11-02T17:22:27.346Z,102014.13
2022-11-02T17:24:32.901Z,102025.59
2022-11-02T17:26:37.353Z,102024.72
2022-11-02T17:28:45.380Z,102020.34
2022-11-02T17:30:48.061Z,102021.25
2022-11-02T17:32:49.543Z,102023.06
2022-11-02T17:34:57.190Z,102024.00
2022-11-02T17:36:58.690Z,102019.63
2022-11-02T17:39:02.359Z,102024.06
2022-11-02T17:41:23.979Z,102019.72
2022-11-02T17:43:25.518Z,102017.97
2022-11-02T17:45:29.613Z,102022.34
2022-11-02T17:47:31.050Z,102018.84
2022-11-02T17:49:32.698Z,102020.63
2022-11-02T17:51:34.183Z,102015.38
2022-11-02T17:53:35.634Z,102020.69
2022-11-02T17:55:37.584Z,102018.94
2022-11-02T17:57:39.031Z,102019.81
2022-11-02T17:59:40.530Z,102020.72
2022-11-02T18:01:42.149Z,102021.66
2022-11-02T18:03:43.735Z,102019.91
2022-11-02T18:05:49.417Z,102019.00
2022-11-02T18:07:52.971Z,102015.50
2022-11-02T18:09:54.387Z,102018.19
2022-11-02T18:11:55.881Z,102020.84
2022-11-02T18:13:57.338Z,102010.31
2022-11-02T18:15:58.819Z,102016.47
2022-11-02T18:18:00.789Z,102017.31
2022-11-02T18:20:02.231Z,101998.00
2022-11-02T18:22:03.715Z,101999.78
2022-11-02T18:24:06.635Z,101998.03
2022-11-02T18:26:11.891Z,101999.81
2022-11-02T18:28:14.249Z,102004.25
2022-11-02T18:30:17.600Z,101994.56
2022-11-02T18:32:19.226Z,102004.28
2022-11-02T18:34:21.646Z,101994.63
2022-11-02T18:36:23.155Z,101994.63
2022-11-02T18:38:24.647Z,101998.16
2022-11-02T18:40:28.188Z,101984.09
2022-11-02T18:42:31.982Z,101993.81
2022-11-02T18:44:33.492Z,101987.69
2022-11-02T18:46:35.509Z,101992.97
2022-11-02T18:48:36.945Z,101992.06
2022-11-02T18:50:38.439Z,101985.91
2022-11-02T18:52:41.848Z,101990.34
2022-11-02T18:54:43.376Z,101992.09
2022-11-02T18:56:45.634Z,101987.69
2022-11-02T18:58:53.892Z,101986.81
2022-11-02T19:00:55.357Z,101987.72
2022-11-02T19:02:56.871Z,101978.94
2022-11-02T19:04:58.302Z,101982.47
2022-11-02T19:07:18.701Z,101979.88
2022-11-02T19:09:23.376Z,101975.50
2022-11-02T19:11:24.993Z,101979.00
2022-11-02T19:13:26.445Z,101984.31
2022-11-02T19:15:28.020Z,101982.53
2022-11-02T19:17:29.907Z,101979.03
2022-11-02T19:19:32.238Z,101971.13
2022-11-02T19:21:33.669Z,101972.84
2022-11-02T19:23:35.117Z,101973.72
2022-11-02T19:25:36.592Z,101972.84
2022-11-02T19:27:38.136Z,101968.44
2022-11-02T19:29:39.797Z,101965.81
2022-11-02T19:31:41.607Z,101958.81
2022-11-02T19:33:43.043Z,101968.47
2022-11-02T19:35:54.504Z,101961.44
2022-11-02T19:37:57.622Z,101961.47
2022-11-02T19:39:59.085Z,101959.72
2022-11-02T19:42:00.750Z,101950.06
2022-11-02T19:44:02.300Z,101949.19
2022-11-02T19:46:05.205Z,101943.94
2022-11-02T19:48:07.082Z,101943.06
2022-11-02T19:50:08.762Z,101938.69
2022-11-02T19:52:10.175Z,101942.25
2022-11-02T19:54:11.891Z,101932.59
2022-11-02T19:56:15.202Z,101930.00
2022-11-02T19:58:16.627Z,101928.25
2022-11-02T20:00:18.237Z,101927.41
2022-11-02T20:02:19.886Z,101928.31
2022-11-02T20:04:21.414Z,101927.44
2022-11-02T20:06:26.017Z,101922.16
2022-11-02T20:08:27.666Z,101923.94
2022-11-02T20:10:29.076Z,101921.31
2022-11-02T20:12:33.473Z,101929.22
2022-11-02T20:14:36.348Z,101920.47
2022-11-02T20:16:38.218Z,101929.25
2022-11-02T20:18:41.374Z,101927.53
2022-11-02T20:20:43.020Z,101931.94
2022-11-02T20:22:45.941Z,101926.66
2022-11-02T20:24:47.362Z,101923.16
2022-11-02T20:26:48.894Z,101921.44
2022-11-02T20:28:51.643Z,101918.78
2022-11-02T20:30:53.546Z,101917.03
2022-11-02T20:32:55.365Z,101910.91
2022-11-02T20:34:56.841Z,101902.13
2022-11-02T20:36:58.290Z,101906.53
2022-11-02T20:38:59.816Z,101906.53
2022-11-02T20:41:13.771Z,101910.94
2022-11-02T20:43:15.856Z,101912.69
2022-11-02T20:45:17.931Z,101907.44
2022-11-02T20:47:19.363Z,101907.44
2022-11-02T20:49:44.325Z,101898.66
2022-11-02T20:51:44.100Z,101901.28
2022-11-02T20:53:46.443Z,101903.91
2022-11-02T20:55:47.943Z,101903.03
2022-11-02T20:57:49.896Z,101901.25
2022-11-02T20:59:51.368Z,101894.25
2022-11-02T21:01:52.937Z,101896.88
2022-11-02T21:03:54.452Z,101881.94
2022-11-02T21:05:57.277Z,101890.75
2022-11-02T21:07:58.724Z,101889.84
2022-11-02T21:10:00.169Z,101881.94
2022-11-02T21:12:20.173Z,101881.94
2022-11-02T21:14:22.808Z,101883.75
2022-11-02T21:16:24.351Z,101892.50
2022-11-02T21:18:25.780Z,101881.94
2022-11-02T21:20:34.103Z,101885.50
2022-11-02T21:22:36.396Z,101889.84
2022-11-02T21:24:37.864Z,101890.75
2022-11-02T21:26:39.313Z,101892.47
2022-11-02T21:28:46.064Z,101888.97
2022-11-02T21:30:48.559Z,101886.38
2022-11-02T21:32:52.622Z,101874.06
2022-11-02T21:34:54.326Z,101876.72
2022-11-02T21:36:55.786Z,101876.69
2022-11-02T21:38:58.699Z,101868.78
2022-11-02T21:41:02.374Z,101868.78
2022-11-02T21:43:04.719Z,101867.91
2022-11-02T21:45:07.229Z,101866.13
2022-11-02T21:47:08.814Z,101863.50
2022-11-02T21:49:10.386Z,101864.38
2022-11-02T21:51:17.642Z,101859.13
2022-11-02T21:53:19.062Z,101859.13
2022-11-02T21:55:20.518Z,101859.13
2022-11-02T21:57:22.043Z,101851.22
2022-11-02T21:59:23.464Z,101847.69
2022-11-02T22:01:46.896Z,101845.06
2022-11-02T22:03:48.863Z,101845.94
2022-11-02T22:05:55.984Z,101842.41
2022-11-02T22:08:16.003Z,101848.56
2022-11-02T22:10:17.545Z,101845.06
2022-11-02T22:12:37.648Z,101850.34
2022-11-02T22:14:40.216Z,101850.31
2022-11-02T22:16:43.132Z,101843.31
2022-11-02T22:18:46.620Z,101843.31
2022-11-02T22:20:54.858Z,101841.56
2022-11-02T22:22:56.321Z,101841.59
2022-11-02T22:24:57.827Z,101840.72
2022-11-02T22:26:59.301Z,101841.59
2022-11-02T22:29:01.051Z,101836.34
2022-11-02T22:31:11.528Z,101832.84
2022-11-02T22:33:12.965Z,101824.06
2022-11-02T22:35:14.505Z,101819.69
2022-11-02T22:37:34.501Z,101822.31
2022-11-02T22:39:35.933Z,101821.41
2022-11-02T22:41:38.545Z,101819.66
2022-11-02T22:43:39.979Z,101813.50
2022-11-02T22:45:41.412Z,101807.38
2022-11-02T22:47:42.887Z,101813.53
2022-11-02T22:49:44.315Z,101809.13
2022-11-02T22:51:48.282Z,101804.75
2022-11-02T22:53:50.447Z,101796.81
2022-11-02T22:56:01.926Z,101797.69
2022-11-02T22:58:03.374Z,101795.94
2022-11-02T23:00:05.435Z,101793.28
2022-11-02T23:02:06.905Z,101790.63
2022-11-02T23:04:10.652Z,101785.34
2022-11-02T23:06:13.462Z,101780.06
2022-11-02T23:08:15.152Z,101776.53
2022-11-02T23:10:35.230Z,101778.28
2022-11-02T23:12:36.668Z,101777.38
2022-11-02T23:14:38.144Z,101777.34
2022-11-02T23:16:40.739Z,101776.47
2022-11-02T23:19:00.826Z,101770.31
2022-11-02T23:21:02.250Z,101765.91
2022-11-02T23:23:22.103Z,101766.78
2022-11-02T23:25:23.542Z,101769.41
2022-11-02T23:27:25.101Z,101765.88
2022-11-02T23:29:44.720Z,101765.00
2022-11-02T23:32:04.325Z,101754.44
2022-11-02T23:34:05.770Z,101756.19
2022-11-02T23:36:10.851Z,101750.88
2022-11-02T23:38:12.282Z,101747.34
2022-11-02T23:40:19.062Z,101746.44
2022-11-02T23:42:20.504Z,101735.03
2022-11-02T23:44:21.975Z,101728.88
2022-11-02T23:46:23.395Z,101733.22
2022-11-02T23:48:24.803Z,101731.44
2022-11-02T23:50:47.285Z,101729.69
2022-11-02T23:53:07.298Z,101721.75
2022-11-02T23:55:31.787Z,101723.47
2022-11-02T23:57:33.301Z,101725.22
2022-11-02T23:59:34.780Z,101728.69
